sensor_id;sensor_type;location;lat;lon;timestamp;P1;durP1;ratioP1;P2;durP2;ratioP2
76119;SDS011;64852;48.092;-1.640;2023-02-17T00:02:23;40.33;;;37.47;;
76119;SDS011;64852;48.092;-1.640;2023-02-17T00:04:48;39.93;;;37.23;;
76119;SDS011;64852;48.092;-1.640;2023-02-17T00:07:14;39.17;;;36.40;;
76119;SDS011;64852;48.092;-1.640;2023-02-17T00:09:39;38.93;;;36.23;;
76119;SDS011;64852;48.092;-1.640;2023-02-17T00:12:05;39.97;;;36.97;;
76119;SDS011;64852;48.092;-1.640;2023-02-17T00:14:31;37.92;;;35.30;;
76119;SDS011;64852;48.092;-1.640;2023-02-17T00:16:57;38.27;;;35.67;;
76119;SDS011;64852;48.092;-1.640;2023-02-17T00:19:22;38.33;;;35.73;;
76119;SDS011;64852;48.092;-1.640;2023-02-17T00:21:52;39.10;;;36.30;;
76119;SDS011;64852;48.092;-1.640;2023-02-17T00:24:21;36.65;;;34.03;;
76119;SDS011;64852;48.092;-1.640;2023-02-17T00:26:47;38.38;;;35.70;;
76119;SDS011;64852;48.092;-1.640;2023-02-17T00:29:14;38.03;;;35.35;;
76119;SDS011;64852;48.092;-1.640;2023-02-17T00:31:39;38.28;;;35.67;;
76119;SDS011;64852;48.092;-1.640;2023-02-17T00:34:05;38.80;;;36.00;;
76119;SDS011;64852;48.092;-1.640;2023-02-17T00:36:31;37.05;;;34.45;;
76119;SDS011;64852;48.092;-1.640;2023-02-17T00:38:57;37.17;;;34.47;;
76119;SDS011;64852;48.092;-1.640;2023-02-17T00:41:23;38.10;;;35.47;;
76119;SDS011;64852;48.092;-1.640;2023-02-17T00:43:50;35.20;;;32.80;;
76119;SDS011;64852;48.092;-1.640;2023-02-17T00:46:16;37.70;;;35.10;;
76119;SDS011;64852;48.092;-1.640;2023-02-17T00:48:42;37.88;;;35.17;;
76119;SDS011;64852;48.092;-1.640;2023-02-17T00:51:08;38.05;;;35.30;;
76119;SDS011;64852;48.092;-1.640;2023-02-17T00:53:34;38.33;;;35.63;;
76119;SDS011;64852;48.092;-1.640;2023-02-17T00:56:00;39.03;;;35.63;;
76119;SDS011;64852;48.092;-1.640;2023-02-17T00:58:26;37.15;;;34.55;;
76119;SDS011;64852;48.092;-1.640;2023-02-17T01:00:53;37.67;;;34.87;;
76119;SDS011;64852;48.092;-1.640;2023-02-17T01:03:20;38.40;;;35.70;;
76119;SDS011;64852;48.092;-1.640;2023-02-17T01:05:46;38.20;;;35.60;;
76119;SDS011;64852;48.092;-1.640;2023-02-17T01:08:13;39.05;;;36.35;;
76119;SDS011;64852;48.092;-1.640;2023-02-17T01:10:40;38.40;;;35.72;;
76119;SDS011;64852;48.092;-1.640;2023-02-17T01:13:09;39.03;;;36.38;;
76119;SDS011;64852;48.092;-1.640;2023-02-17T01:15:39;40.15;;;37.28;;
76119;SDS011;64852;48.092;-1.640;2023-02-17T01:18:07;39.17;;;36.47;;
76119;SDS011;64852;48.092;-1.640;2023-02-17T01:20:33;39.53;;;36.78;;
76119;SDS011;64852;48.092;-1.640;2023-02-17T01:23:00;44.25;;;41.15;;
76119;SDS011;64852;48.092;-1.640;2023-02-17T01:25:26;44.47;;;41.42;;
76119;SDS011;64852;48.092;-1.640;2023-02-17T01:27:51;43.55;;;40.55;;
76119;SDS011;64852;48.092;-1.640;2023-02-17T01:30:17;45.00;;;41.83;;
76119;SDS011;64852;48.092;-1.640;2023-02-17T01:32:43;45.10;;;42.00;;
76119;SDS011;64852;48.092;-1.640;2023-02-17T01:35:08;43.73;;;40.73;;
76119;SDS011;64852;48.092;-1.640;2023-02-17T01:37:34;39.72;;;36.97;;
76119;SDS011;64852;48.092;-1.640;2023-02-17T01:40:00;40.93;;;38.03;;
76119;SDS011;64852;48.092;-1.640;2023-02-17T01:42:26;39.90;;;37.20;;
76119;SDS011;64852;48.092;-1.640;2023-02-17T01:47:54;40.83;;;38.13;;
76119;SDS011;64852;48.092;-1.640;2023-02-17T01:50:31;41.97;;;39.08;;
76119;SDS011;64852;48.092;-1.640;2023-02-17T01:53:01;42.35;;;39.45;;
76119;SDS011;64852;48.092;-1.640;2023-02-17T01:55:29;40.63;;;37.72;;
76119;SDS011;64852;48.092;-1.640;2023-02-17T01:57:57;40.50;;;37.60;;
76119;SDS011;64852;48.092;-1.640;2023-02-17T02:00:27;41.53;;;38.53;;
76119;SDS011;64852;48.092;-1.640;2023-02-17T02:02:54;41.55;;;38.55;;
76119;SDS011;64852;48.092;-1.640;2023-02-17T02:05:20;40.80;;;37.85;;
76119;SDS011;64852;48.092;-1.640;2023-02-17T02:07:46;42.80;;;39.67;;
76119;SDS011;64852;48.092;-1.640;2023-02-17T02:10:14;40.85;;;37.85;;
76119;SDS011;64852;48.092;-1.640;2023-02-17T02:12:41;42.00;;;39.00;;
76119;SDS011;64852;48.092;-1.640;2023-02-17T02:15:09;40.83;;;38.05;;
76119;SDS011;64852;48.092;-1.640;2023-02-17T02:26:09;39.90;;;37.17;;
76119;SDS011;64852;48.092;-1.640;2023-02-17T02:34:01;39.85;;;37.05;;
76119;SDS011;64852;48.092;-1.640;2023-02-17T02:36:42;39.55;;;36.75;;
76119;SDS011;64852;48.092;-1.640;2023-02-17T02:39:20;39.53;;;36.72;;
76119;SDS011;64852;48.092;-1.640;2023-02-17T02:41:54;38.28;;;35.47;;
76119;SDS011;64852;48.092;-1.640;2023-02-17T02:44:29;38.13;;;35.33;;
76119;SDS011;64852;48.092;-1.640;2023-02-17T02:47:05;39.22;;;36.42;;
76119;SDS011;64852;48.092;-1.640;2023-02-17T02:49:51;38.58;;;35.78;;
76119;SDS011;64852;48.092;-1.640;2023-02-17T02:52:27;39.00;;;36.30;;
76119;SDS011;64852;48.092;-1.640;2023-02-17T03:00:40;38.92;;;36.13;;
76119;SDS011;64852;48.092;-1.640;2023-02-17T03:03:22;39.05;;;36.05;;
76119;SDS011;64852;48.092;-1.640;2023-02-17T03:06:26;38.75;;;35.92;;
76119;SDS011;64852;48.092;-1.640;2023-02-17T03:09:24;37.97;;;35.33;;
76119;SDS011;64852;48.092;-1.640;2023-02-17T03:11:51;37.95;;;35.25;;
76119;SDS011;64852;48.092;-1.640;2023-02-17T03:14:20;39.70;;;36.90;;
76119;SDS011;64852;48.092;-1.640;2023-02-17T03:16:46;39.50;;;36.63;;
76119;SDS011;64852;48.092;-1.640;2023-02-17T03:19:13;41.67;;;38.80;;
76119;SDS011;64852;48.092;-1.640;2023-02-17T03:21:48;44.30;;;41.20;;
76119;SDS011;64852;48.092;-1.640;2023-02-17T03:24:16;43.28;;;40.28;;
76119;SDS011;64852;48.092;-1.640;2023-02-17T03:26:43;44.03;;;41.00;;
76119;SDS011;64852;48.092;-1.640;2023-02-17T03:29:08;43.53;;;40.53;;
76119;SDS011;64852;48.092;-1.640;2023-02-17T03:31:34;39.50;;;36.80;;
76119;SDS011;64852;48.092;-1.640;2023-02-17T03:34:00;38.40;;;35.78;;
76119;SDS011;64852;48.092;-1.640;2023-02-17T03:36:26;40.28;;;37.47;;
76119;SDS011;64852;48.092;-1.640;2023-02-17T03:38:53;39.35;;;36.65;;
76119;SDS011;64852;48.092;-1.640;2023-02-17T03:41:19;39.15;;;36.25;;
76119;SDS011;64852;48.092;-1.640;2023-02-17T03:43:45;39.67;;;36.97;;
76119;SDS011;64852;48.092;-1.640;2023-02-17T03:46:12;40.47;;;37.67;;
76119;SDS011;64852;48.092;-1.640;2023-02-17T03:48:39;38.50;;;35.75;;
76119;SDS011;64852;48.092;-1.640;2023-02-17T03:51:18;39.65;;;36.88;;
76119;SDS011;64852;48.092;-1.640;2023-02-17T03:53:46;39.53;;;36.83;;
76119;SDS011;64852;48.092;-1.640;2023-02-17T03:56:12;37.40;;;34.78;;
76119;SDS011;64852;48.092;-1.640;2023-02-17T03:58:38;38.58;;;35.88;;
76119;SDS011;64852;48.092;-1.640;2023-02-17T04:01:05;36.20;;;33.70;;
76119;SDS011;64852;48.092;-1.640;2023-02-17T04:03:32;37.08;;;34.38;;
76119;SDS011;64852;48.092;-1.640;2023-02-17T04:05:59;35.85;;;33.35;;
76119;SDS011;64852;48.092;-1.640;2023-02-17T04:08:24;37.40;;;34.60;;
76119;SDS011;64852;48.092;-1.640;2023-02-17T04:10:54;37.13;;;34.45;;
76119;SDS011;64852;48.092;-1.640;2023-02-17T04:13:21;35.67;;;33.17;;
76119;SDS011;64852;48.092;-1.640;2023-02-17T04:15:48;35.65;;;32.95;;
76119;SDS011;64852;48.092;-1.640;2023-02-17T04:18:14;35.20;;;32.70;;
76119;SDS011;64852;48.092;-1.640;2023-02-17T04:20:41;36.22;;;33.42;;
76119;SDS011;64852;48.092;-1.640;2023-02-17T04:23:07;36.20;;;33.55;;
76119;SDS011;64852;48.092;-1.640;2023-02-17T04:25:34;35.58;;;33.08;;
76119;SDS011;64852;48.092;-1.640;2023-02-17T04:28:01;34.45;;;31.92;;
76119;SDS011;64852;48.092;-1.640;2023-02-17T04:30:31;35.33;;;32.53;;
76119;SDS011;64852;48.092;-1.640;2023-02-17T04:32:57;34.63;;;31.98;;
76119;SDS011;64852;48.092;-1.640;2023-02-17T04:35:23;33.78;;;31.38;;
76119;SDS011;64852;48.092;-1.640;2023-02-17T04:37:49;35.20;;;32.70;;
76119;SDS011;64852;48.092;-1.640;2023-02-17T04:40:15;34.28;;;31.63;;
76119;SDS011;64852;48.092;-1.640;2023-02-17T04:42:41;34.35;;;31.85;;
76119;SDS011;64852;48.092;-1.640;2023-02-17T04:45:07;35.53;;;32.93;;
76119;SDS011;64852;48.092;-1.640;2023-02-17T04:47:33;35.35;;;32.25;;
76119;SDS011;64852;48.092;-1.640;2023-02-17T04:49:59;35.95;;;33.35;;
76119;SDS011;64852;48.092;-1.640;2023-02-17T04:52:24;35.80;;;33.05;;
76119;SDS011;64852;48.092;-1.640;2023-02-17T04:54:50;35.55;;;32.95;;
76119;SDS011;64852;48.092;-1.640;2023-02-17T04:57:16;40.23;;;37.13;;
76119;SDS011;64852;48.092;-1.640;2023-02-17T04:59:42;39.15;;;36.38;;
76119;SDS011;64852;48.092;-1.640;2023-02-17T05:04:34;38.83;;;36.08;;
76119;SDS011;64852;48.092;-1.640;2023-02-17T05:06:59;39.78;;;36.97;;
76119;SDS011;64852;48.092;-1.640;2023-02-17T05:09:25;38.63;;;35.83;;
76119;SDS011;64852;48.092;-1.640;2023-02-17T05:11:51;41.55;;;38.55;;
76119;SDS011;64852;48.092;-1.640;2023-02-17T05:14:16;34.17;;;31.57;;
76119;SDS011;64852;48.092;-1.640;2023-02-17T05:16:42;33.37;;;30.87;;
76119;SDS011;64852;48.092;-1.640;2023-02-17T05:19:08;33.03;;;30.53;;
76119;SDS011;64852;48.092;-1.640;2023-02-17T05:21:34;32.45;;;29.95;;
76119;SDS011;64852;48.092;-1.640;2023-02-17T05:24:00;33.25;;;30.65;;
76119;SDS011;64852;48.092;-1.640;2023-02-17T05:26:25;32.92;;;30.42;;
76119;SDS011;64852;48.092;-1.640;2023-02-17T05:28:51;34.63;;;32.03;;
76119;SDS011;64852;48.092;-1.640;2023-02-17T05:31:17;33.33;;;30.73;;
76119;SDS011;64852;48.092;-1.640;2023-02-17T05:33:43;33.73;;;31.13;;
76119;SDS011;64852;48.092;-1.640;2023-02-17T05:36:09;33.13;;;30.45;;
76119;SDS011;64852;48.092;-1.640;2023-02-17T05:38:35;32.60;;;30.10;;
76119;SDS011;64852;48.092;-1.640;2023-02-17T05:41:01;34.75;;;32.05;;
76119;SDS011;64852;48.092;-1.640;2023-02-17T05:43:26;35.13;;;32.53;;
76119;SDS011;64852;48.092;-1.640;2023-02-17T05:45:52;35.50;;;32.80;;
76119;SDS011;64852;48.092;-1.640;2023-02-17T05:48:18;35.37;;;32.67;;
76119;SDS011;64852;48.092;-1.640;2023-02-17T05:50:43;38.57;;;35.83;;
76119;SDS011;64852;48.092;-1.640;2023-02-17T05:53:09;42.20;;;39.13;;
76119;SDS011;64852;48.092;-1.640;2023-02-17T05:55:35;38.10;;;35.30;;
76119;SDS011;64852;48.092;-1.640;2023-02-17T05:58:00;38.65;;;35.92;;
76119;SDS011;64852;48.092;-1.640;2023-02-17T06:00:26;39.50;;;36.60;;
76119;SDS011;64852;48.092;-1.640;2023-02-17T06:02:52;39.60;;;36.80;;
76119;SDS011;64852;48.092;-1.640;2023-02-17T06:05:18;39.73;;;36.70;;
76119;SDS011;64852;48.092;-1.640;2023-02-17T06:07:44;38.63;;;35.70;;
76119;SDS011;64852;48.092;-1.640;2023-02-17T06:10:09;35.30;;;32.63;;
76119;SDS011;64852;48.092;-1.640;2023-02-17T06:12:35;35.50;;;32.90;;
76119;SDS011;64852;48.092;-1.640;2023-02-17T06:15:01;35.93;;;33.33;;
76119;SDS011;64852;48.092;-1.640;2023-02-17T06:17:26;36.10;;;33.30;;
76119;SDS011;64852;48.092;-1.640;2023-02-17T06:19:52;35.70;;;32.93;;
76119;SDS011;64852;48.092;-1.640;2023-02-17T06:22:18;36.57;;;33.77;;
76119;SDS011;64852;48.092;-1.640;2023-02-17T06:24:43;36.57;;;33.87;;
76119;SDS011;64852;48.092;-1.640;2023-02-17T06:27:09;36.67;;;33.87;;
76119;SDS011;64852;48.092;-1.640;2023-02-17T06:29:35;35.10;;;32.40;;
76119;SDS011;64852;48.092;-1.640;2023-02-17T06:32:00;34.80;;;32.10;;
76119;SDS011;64852;48.092;-1.640;2023-02-17T06:34:26;34.90;;;32.10;;
76119;SDS011;64852;48.092;-1.640;2023-02-17T06:36:52;34.50;;;31.90;;
76119;SDS011;64852;48.092;-1.640;2023-02-17T06:39:17;34.55;;;31.92;;
76119;SDS011;64852;48.092;-1.640;2023-02-17T06:41:43;34.60;;;31.90;;
76119;SDS011;64852;48.092;-1.640;2023-02-17T06:44:09;37.60;;;34.75;;
76119;SDS011;64852;48.092;-1.640;2023-02-17T06:46:34;38.90;;;36.00;;
76119;SDS011;64852;48.092;-1.640;2023-02-17T06:49:00;39.33;;;36.23;;
76119;SDS011;64852;48.092;-1.640;2023-02-17T06:51:26;38.10;;;35.20;;
76119;SDS011;64852;48.092;-1.640;2023-02-17T06:53:53;38.22;;;35.40;;
76119;SDS011;64852;48.092;-1.640;2023-02-17T06:56:18;38.55;;;35.47;;
76119;SDS011;64852;48.092;-1.640;2023-02-17T06:58:44;38.63;;;35.70;;
76119;SDS011;64852;48.092;-1.640;2023-02-17T07:01:14;38.30;;;35.40;;
76119;SDS011;64852;48.092;-1.640;2023-02-17T07:03:44;39.05;;;35.97;;
76119;SDS011;64852;48.092;-1.640;2023-02-17T07:06:10;38.17;;;35.25;;
76119;SDS011;64852;48.092;-1.640;2023-02-17T07:08:36;38.28;;;35.38;;
76119;SDS011;64852;48.092;-1.640;2023-02-17T07:11:06;37.60;;;34.73;;
76119;SDS011;64852;48.092;-1.640;2023-02-17T07:13:33;36.38;;;33.67;;
76119;SDS011;64852;48.092;-1.640;2023-02-17T07:15:58;37.08;;;34.20;;
76119;SDS011;64852;48.092;-1.640;2023-02-17T07:18:24;36.10;;;33.30;;
76119;SDS011;64852;48.092;-1.640;2023-02-17T07:20:50;37.73;;;34.83;;
76119;SDS011;64852;48.092;-1.640;2023-02-17T07:23:15;39.00;;;36.00;;
76119;SDS011;64852;48.092;-1.640;2023-02-17T07:25:41;40.28;;;37.22;;
76119;SDS011;64852;48.092;-1.640;2023-02-17T07:28:07;40.35;;;37.33;;
76119;SDS011;64852;48.092;-1.640;2023-02-17T07:30:37;39.45;;;36.35;;
76119;SDS011;64852;48.092;-1.640;2023-02-17T07:33:03;39.15;;;36.05;;
76119;SDS011;64852;48.092;-1.640;2023-02-17T07:35:29;38.97;;;35.63;;
76119;SDS011;64852;48.092;-1.640;2023-02-17T07:37:56;38.25;;;35.35;;
76119;SDS011;64852;48.092;-1.640;2023-02-17T07:40:22;39.08;;;36.05;;
76119;SDS011;64852;48.092;-1.640;2023-02-17T07:42:47;38.30;;;35.40;;
76119;SDS011;64852;48.092;-1.640;2023-02-17T07:45:13;40.75;;;37.75;;
76119;SDS011;64852;48.092;-1.640;2023-02-17T07:47:39;39.92;;;36.83;;
76119;SDS011;64852;48.092;-1.640;2023-02-17T07:50:05;39.63;;;36.63;;
76119;SDS011;64852;48.092;-1.640;2023-02-17T07:52:31;39.10;;;36.20;;
76119;SDS011;64852;48.092;-1.640;2023-02-17T07:54:57;41.57;;;38.47;;
76119;SDS011;64852;48.092;-1.640;2023-02-17T07:57:22;41.73;;;38.63;;
76119;SDS011;64852;48.092;-1.640;2023-02-17T07:59:48;42.57;;;39.57;;
76119;SDS011;64852;48.092;-1.640;2023-02-17T08:02:13;41.03;;;37.97;;
76119;SDS011;64852;48.092;-1.640;2023-02-17T08:04:39;42.57;;;39.37;;
76119;SDS011;64852;48.092;-1.640;2023-02-17T08:07:05;40.50;;;37.50;;
76119;SDS011;64852;48.092;-1.640;2023-02-17T08:09:31;39.63;;;36.72;;
76119;SDS011;64852;48.092;-1.640;2023-02-17T08:12:15;41.25;;;38.25;;
76119;SDS011;64852;48.092;-1.640;2023-02-17T08:15:02;41.53;;;38.53;;
76119;SDS011;64852;48.092;-1.640;2023-02-17T08:17:29;40.72;;;37.83;;
76119;SDS011;64852;48.092;-1.640;2023-02-17T08:19:54;42.67;;;39.57;;
76119;SDS011;64852;48.092;-1.640;2023-02-17T08:22:20;40.80;;;37.80;;
76119;SDS011;64852;48.092;-1.640;2023-02-17T08:24:46;42.20;;;39.10;;
76119;SDS011;64852;48.092;-1.640;2023-02-17T08:27:15;42.88;;;39.78;;
76119;SDS011;64852;48.092;-1.640;2023-02-17T08:29:42;44.90;;;41.50;;
76119;SDS011;64852;48.092;-1.640;2023-02-17T08:34:34;42.42;;;39.33;;
76119;SDS011;64852;48.092;-1.640;2023-02-17T08:37:00;40.27;;;37.27;;
76119;SDS011;64852;48.092;-1.640;2023-02-17T08:39:27;38.00;;;35.20;;
76119;SDS011;64852;48.092;-1.640;2023-02-17T08:41:53;41.55;;;37.90;;
76119;SDS011;64852;48.092;-1.640;2023-02-17T08:44:19;40.28;;;37.28;;
76119;SDS011;64852;48.092;-1.640;2023-02-17T08:46:46;37.80;;;35.00;;
76119;SDS011;64852;48.092;-1.640;2023-02-17T08:49:13;41.40;;;38.40;;
76119;SDS011;64852;48.092;-1.640;2023-02-17T08:51:40;43.13;;;39.97;;
76119;SDS011;64852;48.092;-1.640;2023-02-17T08:54:06;46.35;;;41.75;;
76119;SDS011;64852;48.092;-1.640;2023-02-17T08:56:34;41.58;;;38.58;;
76119;SDS011;64852;48.092;-1.640;2023-02-17T08:59:01;40.70;;;37.80;;
76119;SDS011;64852;48.092;-1.640;2023-02-17T09:01:28;40.45;;;37.55;;
76119;SDS011;64852;48.092;-1.640;2023-02-17T09:03:55;42.15;;;39.05;;
76119;SDS011;64852;48.092;-1.640;2023-02-17T09:06:22;39.65;;;36.80;;
76119;SDS011;64852;48.092;-1.640;2023-02-17T09:08:48;40.55;;;37.55;;
76119;SDS011;64852;48.092;-1.640;2023-02-17T09:11:13;41.35;;;38.25;;
76119;SDS011;64852;48.092;-1.640;2023-02-17T09:13:42;40.25;;;37.35;;
76119;SDS011;64852;48.092;-1.640;2023-02-17T09:16:08;41.22;;;38.22;;
76119;SDS011;64852;48.092;-1.640;2023-02-17T09:18:35;42.53;;;39.17;;
76119;SDS011;64852;48.092;-1.640;2023-02-17T09:21:05;40.08;;;37.17;;
76119;SDS011;64852;48.092;-1.640;2023-02-17T09:23:31;40.05;;;37.05;;
76119;SDS011;64852;48.092;-1.640;2023-02-17T09:26:04;39.00;;;36.03;;
76119;SDS011;64852;48.092;-1.640;2023-02-17T09:28:31;41.45;;;38.42;;
76119;SDS011;64852;48.092;-1.640;2023-02-17T09:30:58;40.88;;;37.88;;
76119;SDS011;64852;48.092;-1.640;2023-02-17T09:33:31;40.33;;;37.22;;
76119;SDS011;64852;48.092;-1.640;2023-02-17T09:35:57;38.67;;;35.73;;
76119;SDS011;64852;48.092;-1.640;2023-02-17T09:38:23;41.47;;;38.27;;
76119;SDS011;64852;48.092;-1.640;2023-02-17T09:40:48;41.13;;;37.50;;
76119;SDS011;64852;48.092;-1.640;2023-02-17T09:43:16;38.42;;;35.42;;
76119;SDS011;64852;48.092;-1.640;2023-02-17T09:45:49;39.17;;;36.22;;
76119;SDS011;64852;48.092;-1.640;2023-02-17T09:48:19;39.08;;;36.17;;
76119;SDS011;64852;48.092;-1.640;2023-02-17T09:50:57;44.58;;;40.92;;
76119;SDS011;64852;48.092;-1.640;2023-02-17T09:53:36;42.67;;;39.58;;
76119;SDS011;64852;48.092;-1.640;2023-02-17T09:56:10;40.97;;;37.78;;
76119;SDS011;64852;48.092;-1.640;2023-02-17T09:58:48;43.40;;;40.30;;
76119;SDS011;64852;48.092;-1.640;2023-02-17T10:01:30;41.92;;;38.92;;
76119;SDS011;64852;48.092;-1.640;2023-02-17T10:04:04;42.20;;;39.17;;
76119;SDS011;64852;48.092;-1.640;2023-02-17T10:06:36;40.13;;;37.20;;
76119;SDS011;64852;48.092;-1.640;2023-02-17T10:14:19;41.42;;;38.47;;
76119;SDS011;64852;48.092;-1.640;2023-02-17T10:16:56;39.80;;;36.90;;
76119;SDS011;64852;48.092;-1.640;2023-02-17T10:19:46;39.47;;;36.58;;
76119;SDS011;64852;48.092;-1.640;2023-02-17T10:22:31;40.58;;;37.67;;
76119;SDS011;64852;48.092;-1.640;2023-02-17T10:24:57;40.97;;;38.10;;
76119;SDS011;64852;48.092;-1.640;2023-02-17T10:33:05;40.83;;;37.83;;
76119;SDS011;64852;48.092;-1.640;2023-02-17T10:35:40;40.25;;;37.33;;
76119;SDS011;64852;48.092;-1.640;2023-02-17T10:40:39;38.38;;;35.47;;
76119;SDS011;64852;48.092;-1.640;2023-02-17T10:43:07;40.83;;;37.92;;
76119;SDS011;64852;48.092;-1.640;2023-02-17T10:45:35;39.67;;;36.78;;
76119;SDS011;64852;48.092;-1.640;2023-02-17T10:48:27;40.90;;;37.90;;
76119;SDS011;64852;48.092;-1.640;2023-02-17T10:50:58;40.50;;;37.70;;
76119;SDS011;64852;48.092;-1.640;2023-02-17T10:53:30;41.20;;;38.30;;
76119;SDS011;64852;48.092;-1.640;2023-02-17T10:55:59;39.65;;;36.95;;
76119;SDS011;64852;48.092;-1.640;2023-02-17T10:58:30;39.65;;;36.92;;
76119;SDS011;64852;48.092;-1.640;2023-02-17T11:01:16;41.10;;;38.20;;
76119;SDS011;64852;48.092;-1.640;2023-02-17T11:03:41;44.65;;;41.55;;
76119;SDS011;64852;48.092;-1.640;2023-02-17T11:06:18;41.35;;;38.45;;
76119;SDS011;64852;48.092;-1.640;2023-02-17T11:08:50;44.42;;;41.33;;
76119;SDS011;64852;48.092;-1.640;2023-02-17T11:11:22;41.65;;;38.75;;
76119;SDS011;64852;48.092;-1.640;2023-02-17T11:19:02;42.60;;;39.72;;
76119;SDS011;64852;48.092;-1.640;2023-02-17T11:21:29;41.35;;;38.45;;
76119;SDS011;64852;48.092;-1.640;2023-02-17T11:24:01;41.58;;;38.70;;
76119;SDS011;64852;48.092;-1.640;2023-02-17T11:26:30;36.20;;;33.60;;
76119;SDS011;64852;48.092;-1.640;2023-02-17T11:29:15;38.95;;;36.20;;
76119;SDS011;64852;48.092;-1.640;2023-02-17T11:31:52;44.92;;;41.92;;
76119;SDS011;64852;48.092;-1.640;2023-02-17T11:36:55;39.20;;;36.50;;
76119;SDS011;64852;48.092;-1.640;2023-02-17T11:39:37;39.10;;;36.40;;
76119;SDS011;64852;48.092;-1.640;2023-02-17T11:42:24;38.38;;;35.67;;
76119;SDS011;64852;48.092;-1.640;2023-02-17T11:44:52;40.00;;;37.10;;
76119;SDS011;64852;48.092;-1.640;2023-02-17T11:47:33;40.92;;;37.92;;
76119;SDS011;64852;48.092;-1.640;2023-02-17T11:50:16;41.55;;;38.60;;
76119;SDS011;64852;48.092;-1.640;2023-02-17T12:01:20;41.17;;;38.10;;
76119;SDS011;64852;48.092;-1.640;2023-02-17T12:15:14;42.75;;;39.85;;
76119;SDS011;64852;48.092;-1.640;2023-02-17T12:17:53;41.53;;;38.83;;
76119;SDS011;64852;48.092;-1.640;2023-02-17T12:23:23;43.13;;;40.25;;
76119;SDS011;64852;48.092;-1.640;2023-02-17T12:26:10;44.80;;;41.90;;
76119;SDS011;64852;48.092;-1.640;2023-02-17T12:34:38;38.47;;;35.78;;
76119;SDS011;64852;48.092;-1.640;2023-02-17T12:37:12;40.90;;;38.20;;
76119;SDS011;64852;48.092;-1.640;2023-02-17T12:39:45;39.53;;;36.88;;
76119;SDS011;64852;48.092;-1.640;2023-02-17T12:42:32;42.05;;;39.40;;
76119;SDS011;64852;48.092;-1.640;2023-02-17T12:45:03;38.08;;;35.70;;
76119;SDS011;64852;48.092;-1.640;2023-02-17T12:47:48;37.03;;;34.83;;
76119;SDS011;64852;48.092;-1.640;2023-02-17T12:50:23;37.28;;;35.00;;
76119;SDS011;64852;48.092;-1.640;2023-02-17T12:52:55;36.97;;;34.70;;
76119;SDS011;64852;48.092;-1.640;2023-02-17T12:55:25;38.65;;;36.08;;
76119;SDS011;64852;48.092;-1.640;2023-02-17T12:58:00;37.67;;;35.45;;
76119;SDS011;64852;48.092;-1.640;2023-02-17T13:03:04;34.28;;;32.17;;
76119;SDS011;64852;48.092;-1.640;2023-02-17T13:08:04;39.70;;;37.20;;
76119;SDS011;64852;48.092;-1.640;2023-02-17T13:10:42;36.78;;;34.65;;
76119;SDS011;64852;48.092;-1.640;2023-02-17T13:13:10;33.65;;;31.55;;
76119;SDS011;64852;48.092;-1.640;2023-02-17T13:15:39;33.95;;;31.95;;
76119;SDS011;64852;48.092;-1.640;2023-02-17T13:18:40;31.45;;;29.65;;
76119;SDS011;64852;48.092;-1.640;2023-02-17T13:21:02;30.35;;;28.55;;
76119;SDS011;64852;48.092;-1.640;2023-02-17T13:23:44;35.00;;;32.80;;
76119;SDS011;64852;48.092;-1.640;2023-02-17T13:28:50;32.45;;;30.65;;
76119;SDS011;64852;48.092;-1.640;2023-02-17T13:31:20;32.53;;;30.73;;
76119;SDS011;64852;48.092;-1.640;2023-02-17T13:33:52;33.20;;;31.20;;
76119;SDS011;64852;48.092;-1.640;2023-02-17T13:36:41;32.30;;;30.45;;
76119;SDS011;64852;48.092;-1.640;2023-02-17T13:41:50;32.97;;;31.08;;
76119;SDS011;64852;48.092;-1.640;2023-02-17T13:44:24;33.38;;;31.30;;
76119;SDS011;64852;48.092;-1.640;2023-02-17T13:46:50;35.50;;;32.97;;
76119;SDS011;64852;48.092;-1.640;2023-02-17T13:49:21;35.70;;;33.63;;
76119;SDS011;64852;48.092;-1.640;2023-02-17T13:51:50;35.97;;;33.78;;
76119;SDS011;64852;48.092;-1.640;2023-02-17T13:54:18;32.93;;;31.00;;
76119;SDS011;64852;48.092;-1.640;2023-02-17T13:56:51;33.88;;;31.98;;
76119;SDS011;64852;48.092;-1.640;2023-02-17T13:59:23;33.33;;;31.38;;
76119;SDS011;64852;48.092;-1.640;2023-02-17T14:01:50;33.65;;;31.73;;
76119;SDS011;64852;48.092;-1.640;2023-02-17T14:04:27;32.83;;;30.92;;
76119;SDS011;64852;48.092;-1.640;2023-02-17T14:06:56;33.70;;;31.73;;
76119;SDS011;64852;48.092;-1.640;2023-02-17T14:09:33;32.85;;;30.95;;
76119;SDS011;64852;48.092;-1.640;2023-02-17T14:12:03;32.20;;;30.40;;
76119;SDS011;64852;48.092;-1.640;2023-02-17T14:14:32;31.98;;;30.05;;
76119;SDS011;64852;48.092;-1.640;2023-02-17T14:17:04;31.88;;;29.98;;
76119;SDS011;64852;48.092;-1.640;2023-02-17T14:19:49;31.55;;;29.75;;
76119;SDS011;64852;48.092;-1.640;2023-02-17T14:22:32;32.20;;;30.30;;
76119;SDS011;64852;48.092;-1.640;2023-02-17T14:27:47;31.77;;;29.98;;
76119;SDS011;64852;48.092;-1.640;2023-02-17T14:30:33;31.50;;;29.70;;
76119;SDS011;64852;48.092;-1.640;2023-02-17T14:35:39;30.70;;;29.00;;
76119;SDS011;64852;48.092;-1.640;2023-02-17T14:38:25;31.73;;;29.75;;
76119;SDS011;64852;48.092;-1.640;2023-02-17T14:40:53;33.33;;;31.33;;
76119;SDS011;64852;48.092;-1.640;2023-02-17T14:43:20;31.20;;;29.40;;
76119;SDS011;64852;48.092;-1.640;2023-02-17T14:45:47;31.50;;;29.70;;
76119;SDS011;64852;48.092;-1.640;2023-02-17T14:48:13;31.77;;;29.98;;
76119;SDS011;64852;48.092;-1.640;2023-02-17T14:50:38;31.50;;;29.70;;
76119;SDS011;64852;48.092;-1.640;2023-02-17T14:56:01;30.27;;;28.58;;
76119;SDS011;64852;48.092;-1.640;2023-02-17T14:58:31;30.02;;;28.33;;
76119;SDS011;64852;48.092;-1.640;2023-02-17T15:00:57;30.55;;;28.65;;
76119;SDS011;64852;48.092;-1.640;2023-02-17T15:03:23;30.75;;;28.85;;
76119;SDS011;64852;48.092;-1.640;2023-02-17T15:05:48;30.60;;;28.90;;
76119;SDS011;64852;48.092;-1.640;2023-02-17T15:08:16;29.85;;;28.15;;
76119;SDS011;64852;48.092;-1.640;2023-02-17T15:10:44;30.92;;;29.13;;
76119;SDS011;64852;48.092;-1.640;2023-02-17T15:13:14;29.10;;;27.50;;
76119;SDS011;64852;48.092;-1.640;2023-02-17T15:15:41;29.80;;;28.10;;
76119;SDS011;64852;48.092;-1.640;2023-02-17T15:18:11;28.33;;;26.73;;
76119;SDS011;64852;48.092;-1.640;2023-02-17T15:20:42;27.63;;;26.13;;
76119;SDS011;64852;48.092;-1.640;2023-02-17T15:23:10;27.63;;;26.08;;
76119;SDS011;64852;48.092;-1.640;2023-02-17T15:25:38;28.95;;;27.35;;
76119;SDS011;64852;48.092;-1.640;2023-02-17T15:28:04;30.23;;;28.52;;
76119;SDS011;64852;48.092;-1.640;2023-02-17T15:30:30;28.42;;;26.83;;
76119;SDS011;64852;48.092;-1.640;2023-02-17T15:32:56;29.35;;;27.70;;
76119;SDS011;64852;48.092;-1.640;2023-02-17T15:35:22;29.10;;;27.42;;
76119;SDS011;64852;48.092;-1.640;2023-02-17T15:37:50;28.40;;;26.80;;
76119;SDS011;64852;48.092;-1.640;2023-02-17T15:40:17;27.95;;;26.35;;
76119;SDS011;64852;48.092;-1.640;2023-02-17T15:42:44;28.02;;;26.42;;
76119;SDS011;64852;48.092;-1.640;2023-02-17T15:45:13;29.20;;;27.50;;
76119;SDS011;64852;48.092;-1.640;2023-02-17T15:47:43;29.00;;;27.35;;
76119;SDS011;64852;48.092;-1.640;2023-02-17T15:50:27;29.58;;;27.90;;
76119;SDS011;64852;48.092;-1.640;2023-02-17T15:52:53;30.00;;;28.20;;
76119;SDS011;64852;48.092;-1.640;2023-02-17T15:55:19;29.20;;;27.50;;
76119;SDS011;64852;48.092;-1.640;2023-02-17T15:57:48;28.35;;;26.65;;